createdAt,value
2023-09-30T00:01:53.304Z,102548.06
2023-09-30T00:04:22.982Z,102535.63
2023-09-30T00:06:50.990Z,102539.13
2023-09-30T00:09:18.931Z,102543.56
2023-09-30T00:11:46.851Z,102547.38
2023-09-30T00:14:14.833Z,102570.34
2023-09-30T00:16:42.798Z,102566.78
2023-09-30T00:19:10.979Z,102538.59
2023-09-30T00:21:40.463Z,102558.72
2023-09-30T00:24:08.924Z,102556.94
2023-09-30T00:26:36.866Z,102530.34
2023-09-30T00:29:06.225Z,102548.94
2023-09-30T00:31:34.179Z,102543.75
2023-09-30T00:34:02.208Z,102532.31
2023-09-30T00:36:30.298Z,102546.69
2023-09-30T00:38:59.655Z,102538.88
2023-09-30T00:41:27.632Z,102543.25
2023-09-30T00:43:55.808Z,102538.94
2023-09-30T00:46:28.246Z,102538.13
2023-09-30T00:48:56.353Z,102523.88
2023-09-30T00:51:24.385Z,102538.28
2023-09-30T00:53:52.492Z,102534.91
2023-09-30T00:56:21.822Z,102541.16
2023-09-30T00:58:52.306Z,102535.09
2023-09-30T01:01:20.739Z,102539.47
2023-09-30T01:03:48.926Z,102535.09
2023-09-30T01:06:16.951Z,102524.28
2023-09-30T01:08:45.096Z,102522.56
2023-09-30T01:11:13.097Z,102528.78
2023-09-30T01:13:44.456Z,102527.97
2023-09-30T01:16:12.663Z,102530.72
2023-09-30T01:18:41.380Z,102519.25
2023-09-30T01:21:09.659Z,102502.25
2023-09-30T01:23:38.953Z,102504.16
2023-09-30T01:26:10.002Z,102511.41
2023-09-30T01:28:38.306Z,102510.66
2023-09-30T01:31:06.485Z,102508.97
2023-09-30T01:33:34.591Z,102510.94
2023-09-30T01:36:02.907Z,102503.06
2023-09-30T01:38:30.797Z,102507.72
2023-09-30T01:41:01.293Z,102498.94
2023-09-30T01:43:31.316Z,102501.78
2023-09-30T01:45:59.701Z,102500.09
2023-09-30T01:48:28.086Z,102486.06
2023-09-30T01:50:56.050Z,102482.56
2023-09-30T01:53:24.004Z,102470.25
2023-09-30T01:55:51.956Z,102473.16
2023-09-30T01:58:21.320Z,102475.03
2023-09-30T02:00:49.295Z,102459.41
2023-09-30T02:03:18.475Z,102481.56
2023-09-30T02:05:46.464Z,102491.47
2023-09-30T02:08:14.920Z,102491.50
2023-09-30T02:10:43.115Z,102495.94
2023-09-30T02:13:11.055Z,102506.75
2023-09-30T02:15:43.449Z,102505.78
2023-09-30T02:18:11.535Z,102515.59
2023-09-30T02:20:40.772Z,102514.72
2023-09-30T02:23:08.764Z,102501.41
2023-09-30T02:25:36.662Z,102488.81
2023-09-30T02:28:05.086Z,102490.59
2023-09-30T02:30:33.057Z,102488.78
2023-09-30T02:33:02.614Z,102480.69
2023-09-30T02:35:30.711Z,102482.38
2023-09-30T02:38:00.071Z,102462.66
2023-09-30T02:40:27.981Z,102442.16
2023-09-30T02:42:55.890Z,102453.59
2023-09-30T02:45:23.988Z,102465.13
2023-09-30T02:47:52.086Z,102455.22
2023-09-30T02:50:22.496Z,102453.22
2023-09-30T02:52:51.137Z,102458.44
2023-09-30T02:55:19.205Z,102453.91
2023-09-30T02:57:48.295Z,102442.25
2023-09-30T03:00:22.033Z,102429.91
2023-09-30T03:02:50.136Z,102438.75
2023-09-30T03:05:18.317Z,102431.44
2023-09-30T03:07:47.832Z,102423.28
2023-09-30T03:10:21.308Z,102425.84
2023-09-30T03:12:49.671Z,102441.91
2023-09-30T03:15:18.006Z,102454.16
2023-09-30T03:17:45.974Z,102441.63
2023-09-30T03:20:15.633Z,102447.69
2023-09-30T03:22:43.924Z,102442.25
2023-09-30T03:25:13.670Z,102432.34
2023-09-30T03:27:42.256Z,102434.09
2023-09-30T03:30:13.990Z,102422.69
2023-09-30T03:32:41.905Z,102427.84
2023-09-30T03:35:11.864Z,102422.38
2023-09-30T03:37:39.870Z,102419.69
2023-09-30T03:40:15.699Z,102423.41
2023-09-30T03:42:45.290Z,102413.56
2023-09-30T03:45:14.925Z,102401.13
2023-09-30T03:47:45.076Z,102396.81
2023-09-30T03:50:16.678Z,102410.31
2023-09-30T03:52:48.482Z,102406.22
2023-09-30T03:55:19.174Z,102403.56
2023-09-30T03:57:50.438Z,102422.53
2023-09-30T04:00:21.730Z,102411.06
2023-09-30T04:02:51.498Z,102397.91
2023-09-30T04:05:21.157Z,102405.19
2023-09-30T04:07:49.168Z,102415.34
2023-09-30T04:10:19.223Z,102422.69
2023-09-30T04:12:50.301Z,102438.66
2023-09-30T04:15:18.638Z,102429.84
2023-09-30T04:17:46.810Z,102430.91
2023-09-30T04:20:21.676Z,102426.59
2023-09-30T04:22:50.726Z,102417.94
2023-09-30T04:25:19.235Z,102420.72
2023-09-30T04:27:49.569Z,102414.72
2023-09-30T04:30:20.025Z,102413.09
2023-09-30T04:32:48.092Z,102411.50
2023-09-30T04:35:16.213Z,102425.97
2023-09-30T04:37:45.018Z,102439.53
2023-09-30T04:40:17.203Z,102441.44
2023-09-30T04:42:45.730Z,102440.63
2023-09-30T04:45:14.237Z,102430.13
2023-09-30T04:47:45.772Z,102414.19
2023-09-30T04:50:17.712Z,102413.28
2023-09-30T04:52:47.011Z,102405.44
2023-09-30T04:55:17.292Z,102388.53
2023-09-30T04:57:46.890Z,102385.94
2023-09-30T05:00:16.005Z,102406.41
2023-09-30T05:02:46.256Z,102415.25
2023-09-30T05:05:14.317Z,102414.44
2023-09-30T05:07:42.374Z,102416.38
2023-09-30T05:10:14.477Z,102419.06
2023-09-30T05:12:46.875Z,102402.19
2023-09-30T05:15:16.810Z,102401.44
2023-09-30T05:17:46.612Z,102397.88
2023-09-30T05:20:14.912Z,102401.22
2023-09-30T05:22:46.063Z,102409.09
2023-09-30T05:25:14.265Z,102391.13
2023-09-30T05:27:42.202Z,102407.59
2023-09-30T05:30:12.032Z,102407.38
2023-09-30T05:32:40.425Z,102393.00
2023-09-30T05:35:14.014Z,102379.31
2023-09-30T05:37:42.620Z,102388.97
2023-09-30T05:40:17.915Z,102405.97
2023-09-30T05:42:46.494Z,102407.78
2023-09-30T05:45:15.001Z,102406.84
2023-09-30T05:47:43.012Z,102393.56
2023-09-30T05:50:15.758Z,102399.88
2023-09-30T05:52:43.985Z,102410.66
2023-09-30T05:55:11.937Z,102397.25
2023-09-30T05:57:40.341Z,102387.41
2023-09-30T06:00:28.925Z,102395.41
2023-09-30T06:02:56.916Z,102389.09
2023-09-30T06:05:27.562Z,102389.88
2023-09-30T06:07:56.312Z,102387.13
2023-09-30T06:10:24.302Z,102396.06
2023-09-30T06:12:56.266Z,102401.44
2023-09-30T06:15:27.796Z,102409.13
2023-09-30T06:17:55.969Z,102398.47
2023-09-30T06:20:27.848Z,102394.00
2023-09-30T06:22:58.088Z,102397.56
2023-09-30T06:25:26.325Z,102398.41
2023-09-30T06:27:55.805Z,102400.03
2023-09-30T06:30:30.879Z,102408.91
2023-09-30T06:33:01.377Z,102410.66
2023-09-30T06:35:31.245Z,102409.72
2023-09-30T06:38:01.014Z,102408.72
2023-09-30T06:40:29.520Z,102406.91
2023-09-30T06:42:58.292Z,102412.19
2023-09-30T06:45:27.524Z,102404.09
2023-09-30T06:47:56.010Z,102395.38
2023-09-30T06:50:25.120Z,102397.81
2023-09-30T06:52:53.162Z,102398.69
2023-09-30T06:55:22.555Z,102399.53
2023-09-30T06:57:50.551Z,102407.47
2023-09-30T07:00:18.819Z,102417.06
2023-09-30T07:02:47.507Z,102413.38
2023-09-30T07:05:16.405Z,102402.56
2023-09-30T07:07:44.896Z,102408.00
2023-09-30T07:10:13.313Z,102412.38
2023-09-30T07:12:43.183Z,102399.53
2023-09-30T07:15:12.093Z,102383.19
2023-09-30T07:17:42.205Z,102380.31
2023-09-30T07:20:12.794Z,102375.91
2023-09-30T07:25:11.697Z,102395.47
2023-09-30T07:27:39.764Z,102387.38
2023-09-30T07:30:11.015Z,102389.16
2023-09-30T07:32:39.024Z,102390.94
2023-09-30T07:35:08.084Z,102385.38
2023-09-30T07:37:36.214Z,102402.22
2023-09-30T07:40:04.499Z,102399.25
2023-09-30T07:42:36.133Z,102413.94
2023-09-30T07:45:05.177Z,102400.28
2023-09-30T07:47:35.279Z,102402.63
2023-09-30T07:50:07.726Z,102406.78
2023-09-30T07:52:35.755Z,102403.81
2023-09-30T07:55:06.218Z,102404.25
2023-09-30T07:57:34.659Z,102406.66
2023-09-30T08:00:03.443Z,102419.50
2023-09-30T08:02:34.517Z,102422.38
2023-09-30T08:05:04.949Z,102402.00
2023-09-30T08:07:32.971Z,102398.84
2023-09-30T08:10:01.013Z,102402.75
2023-09-30T08:12:31.307Z,102405.25
2023-09-30T08:14:59.382Z,102387.28
2023-09-30T08:17:27.835Z,102380.06
2023-09-30T08:19:55.851Z,102384.50
2023-09-30T08:22:28.715Z,102387.09
2023-09-30T08:24:56.894Z,102381.91
2023-09-30T08:27:25.219Z,102373.09
2023-09-30T08:29:53.404Z,102371.16
2023-09-30T08:32:22.589Z,102347.88
2023-09-30T08:34:50.692Z,102311.59
2023-09-30T08:37:19.055Z,102300.59
2023-09-30T08:39:48.400Z,102300.63
2023-09-30T08:42:16.823Z,102289.28
2023-09-30T08:44:44.827Z,102300.97
2023-09-30T08:47:12.844Z,102301.06
2023-09-30T08:49:41.580Z,102314.72
2023-09-30T08:52:10.084Z,102329.84
2023-09-30T08:54:38.761Z,102337.03
2023-09-30T08:57:08.219Z,102360.81
2023-09-30T08:59:37.013Z,102349.81
2023-09-30T09:02:05.257Z,102341.72
2023-09-30T09:04:33.484Z,102329.06
2023-09-30T09:07:02.905Z,102336.72
2023-09-30T09:09:30.904Z,102326.53
2023-09-30T09:11:59.489Z,102319.94
2023-09-30T09:14:40.854Z,102308.84
2023-09-30T09:17:09.197Z,102309.59
2023-09-30T09:19:37.897Z,102308.56
2023-09-30T09:22:08.265Z,102301.19
2023-09-30T09:24:36.996Z,102303.44
2023-09-30T09:27:08.771Z,102290.38
2023-09-30T09:29:40.924Z,102286.50
2023-09-30T09:32:10.203Z,102275.44
2023-09-30T09:34:38.124Z,102276.84
2023-09-30T09:37:16.359Z,102275.44
2023-09-30T09:39:54.492Z,102290.72
2023-09-30T09:42:26.905Z,102281.16
2023-09-30T09:44:58.840Z,102267.75
2023-09-30T09:47:26.917Z,102255.56
2023-09-30T09:49:55.487Z,102277.91
2023-09-30T09:52:24.260Z,102272.97
2023-09-30T09:54:52.794Z,102267.31
2023-09-30T09:57:21.087Z,102276.19
2023-09-30T09:59:49.449Z,102273.34
2023-09-30T10:02:19.349Z,102273.44
2023-09-30T10:04:47.709Z,102262.56
2023-09-30T10:07:20.250Z,102256.16
2023-09-30T10:09:49.353Z,102268.16
2023-09-30T10:12:17.536Z,102252.88
2023-09-30T10:14:45.424Z,102254.19
2023-09-30T10:17:13.421Z,102248.63
2023-09-30T10:20:07.595Z,102257.78
2023-09-30T10:22:35.836Z,102260.94
2023-09-30T10:25:06.606Z,102253.38
2023-09-30T10:27:39.142Z,102249.28
2023-09-30T10:30:14.610Z,102241.81
2023-09-30T10:33:13.284Z,102235.91
2023-09-30T10:35:48.871Z,102225.78
2023-09-30T10:38:39.067Z,102221.63
2023-09-30T10:41:07.476Z,102220.56
2023-09-30T10:43:36.764Z,102225.50
2023-09-30T10:46:07.044Z,102215.41
2023-09-30T10:48:37.126Z,102217.66
2023-09-30T10:51:22.121Z,102214.25
2023-09-30T10:53:52.603Z,102206.88
2023-09-30T10:56:20.978Z,102192.44
2023-09-30T10:58:49.839Z,102206.34
2023-09-30T11:01:18.946Z,102201.59
2023-09-30T11:03:47.562Z,102198.56
2023-09-30T11:06:18.813Z,102208.22
2023-09-30T11:08:52.965Z,102198.78
2023-09-30T11:11:20.914Z,102198.56
2023-09-30T11:13:48.840Z,102187.16
2023-09-30T11:16:16.752Z,102186.59
2023-09-30T11:18:44.803Z,102177.41
2023-09-30T11:21:14.409Z,102164.13
2023-09-30T11:23:43.224Z,102176.50
2023-09-30T11:26:14.607Z,102184.84
2023-09-30T11:28:43.851Z,102175.47
2023-09-30T11:31:14.573Z,102163.13
2023-09-30T11:33:53.861Z,102174.16
2023-09-30T11:36:22.941Z,102174.25
2023-09-30T11:38:52.159Z,102167.06
2023-09-30T11:41:23.497Z,102172.34
2023-09-30T11:44:02.122Z,102167.81
2023-09-30T11:46:30.174Z,102160.19
2023-09-30T11:49:03.510Z,102172.41
2023-09-30T11:51:32.563Z,102173.75
2023-09-30T11:54:01.348Z,102186.59
2023-09-30T11:56:31.438Z,102169.03
2023-09-30T11:59:00.396Z,102166.63
2023-09-30T12:01:32.342Z,102158.75
2023-09-30T12:04:00.776Z,102153.34
2023-09-30T12:06:29.138Z,102147.56
2023-09-30T12:08:57.714Z,102158.59
2023-09-30T12:11:26.997Z,102139.50
2023-09-30T12:13:56.508Z,102128.09
2023-09-30T12:16:25.274Z,102147.59
2023-09-30T12:18:53.312Z,102148.66
2023-09-30T12:21:22.656Z,102147.97
2023-09-30T12:23:52.734Z,102142.78
2023-09-30T12:26:21.364Z,102141.81
2023-09-30T12:28:49.556Z,102136.63
2023-09-30T12:31:19.769Z,102110.75
2023-09-30T12:33:51.807Z,102132.53
2023-09-30T12:36:29.105Z,102130.69
2023-09-30T12:38:57.126Z,102126.16
2023-09-30T12:41:25.468Z,102112.47
2023-09-30T12:43:54.588Z,102122.97
2023-09-30T12:46:24.036Z,102120.34
2023-09-30T12:48:52.436Z,102130.03
2023-09-30T12:51:20.528Z,102117.16
2023-09-30T12:53:48.441Z,102136.09
2023-09-30T12:56:16.544Z,102110.22
2023-09-30T12:58:44.497Z,102113.00
2023-09-30T13:01:22.241Z,102101.13
2023-09-30T13:03:52.572Z,102084.59
2023-09-30T13:06:21.409Z,102067.91
2023-09-30T13:08:49.952Z,102112.09
2023-09-30T13:11:18.635Z,102106.50
2023-09-30T13:13:46.985Z,102108.44
2023-09-30T13:16:15.218Z,102115.03
2023-09-30T13:18:43.670Z,102091.22
2023-09-30T13:21:13.665Z,102099.91
2023-09-30T13:23:41.595Z,102096.78
2023-09-30T13:26:09.546Z,102091.28
2023-09-30T13:28:37.476Z,102085.78
2023-09-30T13:31:05.517Z,102078.72
2023-09-30T13:33:33.714Z,102083.25
2023-09-30T13:36:01.685Z,102089.84
2023-09-30T13:38:30.921Z,102085.31
2023-09-30T13:40:58.869Z,102091.81
2023-09-30T13:43:27.670Z,102096.16
2023-09-30T13:45:55.743Z,102080.06
2023-09-30T13:48:24.238Z,102094.53
2023-09-30T13:50:52.238Z,102072.44
2023-09-30T13:53:20.372Z,102085.56
2023-09-30T13:55:49.682Z,102090.00
2023-09-30T13:58:17.636Z,102087.28
2023-09-30T14:00:49.351Z,102074.94
2023-09-30T14:03:17.461Z,102051.22
2023-09-30T14:05:46.552Z,102074.75
2023-09-30T14:08:14.611Z,102053.94
2023-09-30T14:10:42.552Z,102066.63
2023-09-30T14:13:12.114Z,102060.34
2023-09-30T14:15:40.421Z,102057.47
2023-09-30T14:18:09.182Z,102053.13
2023-09-30T14:20:37.485Z,102054.06
2023-09-30T14:23:05.657Z,102036.97
2023-09-30T14:25:33.734Z,102033.63
2023-09-30T14:28:01.809Z,102053.19
2023-09-30T14:30:31.567Z,102039.91
2023-09-30T14:32:59.958Z,102040.00
2023-09-30T14:35:27.962Z,102043.00
2023-09-30T14:37:56.232Z,102038.59
2023-09-30T14:40:24.335Z,102029.78
2023-09-30T14:42:52.529Z,102038.16
2023-09-30T14:45:22.920Z,102027.34
2023-09-30T14:47:52.450Z,102037.19
2023-09-30T14:50:20.374Z,102029.97
2023-09-30T14:52:49.061Z,102028.97
2023-09-30T14:55:17.775Z,102029.84
2023-09-30T14:57:45.959Z,102022.81
2023-09-30T15:00:16.604Z,102000.78
2023-09-30T15:02:44.622Z,102017.38
2023-09-30T15:05:14.093Z,102024.72
2023-09-30T15:07:42.081Z,102019.72
2023-09-30T15:12:40.570Z,102024.03
2023-09-30T15:15:10.078Z,102022.81
2023-09-30T15:17:38.059Z,102018.84
2023-09-30T15:20:07.644Z,102012.91
2023-09-30T15:22:37.287Z,102007.06
2023-09-30T15:25:05.797Z,102010.59
2023-09-30T15:27:33.822Z,102008.84
2023-09-30T15:30:01.850Z,102006.25
2023-09-30T15:32:30.134Z,101997.38
2023-09-30T15:34:58.104Z,102001.91
2023-09-30T15:37:26.190Z,101998.75
2023-09-30T15:39:55.888Z,101990.66
2023-09-30T15:42:23.882Z,101993.44
2023-09-30T15:44:57.192Z,101988.91
2023-09-30T15:47:25.717Z,101984.66
2023-09-30T15:49:54.034Z,101979.16
2023-09-30T15:52:22.890Z,101977.63
2023-09-30T15:54:51.543Z,101980.22
2023-09-30T15:57:20.936Z,101985.53
2023-09-30T15:59:49.943Z,101980.03
2023-09-30T16:02:17.982Z,101970.75
2023-09-30T16:04:46.050Z,101971.31
2023-09-30T16:07:14.407Z,101970.13
2023-09-30T16:09:42.802Z,101961.97
2023-09-30T16:12:10.969Z,101967.44
2023-09-30T16:14:40.314Z,101959.34
2023-09-30T16:17:08.395Z,101957.16
2023-09-30T16:19:36.458Z,101967.56
2023-09-30T16:22:04.676Z,101965.81
2023-09-30T16:24:32.807Z,101961.16
2023-09-30T16:27:00.764Z,101955.59
2023-09-30T16:29:28.726Z,101958.47
2023-09-30T16:31:58.232Z,101971.97
2023-09-30T16:34:26.308Z,101953.66
2023-09-30T16:36:54.627Z,101968.22
2023-09-30T16:39:22.732Z,101971.69
2023-09-30T16:41:50.720Z,101955.59
2023-09-30T16:44:18.660Z,101955.19
2023-09-30T16:46:50.276Z,101963.19
2023-09-30T16:49:20.086Z,101959.06
2023-09-30T16:51:48.109Z,101964.72
2023-09-30T16:54:16.263Z,101962.97
2023-09-30T16:56:44.881Z,101968.31
2023-09-30T16:59:14.888Z,101971.00
2023-09-30T17:01:42.967Z,101967.31
2023-09-30T17:04:11.881Z,101970.13
2023-09-30T17:06:42.514Z,101965.59
2023-09-30T17:09:12.155Z,101966.56
2023-09-30T17:11:40.234Z,101973.72
2023-09-30T17:14:08.202Z,101978.13
2023-09-30T17:16:36.212Z,101978.13
2023-09-30T17:19:04.324Z,101963.09
2023-09-30T17:21:32.359Z,101974.66
2023-09-30T17:24:02.389Z,101972.84
2023-09-30T17:26:30.632Z,101965.91
2023-09-30T17:28:58.693Z,101967.50
2023-09-30T17:31:27.758Z,101950.97
2023-09-30T17:33:56.120Z,101965.78
2023-09-30T17:36:26.614Z,101970.13
2023-09-30T17:38:54.669Z,101969.44
2023-09-30T17:41:23.986Z,101976.50
2023-09-30T17:43:52.040Z,101969.25
2023-09-30T17:46:20.824Z,101969.00
2023-09-30T17:48:49.508Z,101980.19
2023-09-30T17:51:20.935Z,101980.25
2023-09-30T17:53:49.553Z,101981.13
2023-09-30T17:56:17.652Z,101982.00
2023-09-30T17:58:47.256Z,101979.41
2023-09-30T18:01:16.321Z,101980.38
2023-09-30T18:03:47.220Z,101977.34
2023-09-30T18:06:15.461Z,101987.72
2023-09-30T18:08:44.067Z,101987.84
2023-09-30T18:11:12.617Z,101982.50
2023-09-30T18:13:40.923Z,101986.19
2023-09-30T18:16:10.585Z,101991.69
2023-09-30T18:18:39.581Z,101997.28
2023-09-30T18:21:07.607Z,101996.25
2023-09-30T18:23:36.277Z,101992.75
2023-09-30T18:26:04.338Z,101997.38
2023-09-30T18:28:32.931Z,101986.88
2023-09-30T18:31:01.172Z,101999.00
2023-09-30T18:33:30.668Z,102000.75
2023-09-30T18:36:00.117Z,101994.56
2023-09-30T18:38:28.277Z,101990.13
2023-09-30T18:40:56.216Z,101994.00
2023-09-30T18:43:26.164Z,101999.28
2023-09-30T18:45:54.231Z,101993.81
2023-09-30T18:48:22.492Z,102002.78
2023-09-30T18:50:53.105Z,102002.88
2023-09-30T18:53:21.747Z,101996.25
2023-09-30T18:55:49.920Z,102008.56
2023-09-30T18:58:18.290Z,102012.34
2023-09-30T19:00:47.728Z,102001.84
2023-09-30T19:03:17.018Z,102005.41
2023-09-30T19:05:45.002Z,102005.41
2023-09-30T19:08:14.479Z,101989.31
2023-09-30T19:10:42.782Z,101994.72
2023-09-30T19:13:10.777Z,101993.84
2023-09-30T19:15:39.697Z,101993.94
2023-09-30T19:18:07.945Z,101992.19
2023-09-30T19:20:36.040Z,101993.94
2023-09-30T19:23:04.316Z,101997.53
2023-09-30T19:25:33.627Z,101994.72
2023-09-30T19:28:01.649Z,101986.03
2023-09-30T19:30:30.903Z,101999.34
2023-09-30T19:32:58.939Z,101985.09
2023-09-30T19:35:27.230Z,101994.13
2023-09-30T19:37:56.769Z,101984.22
2023-09-30T19:40:25.066Z,101988.56
2023-09-30T19:42:54.647Z,101983.22
2023-09-30T19:45:24.291Z,101987.56
2023-09-30T19:47:52.529Z,101989.31
2023-09-30T19:50:20.746Z,101991.03
2023-09-30T19:52:48.659Z,101983.91
2023-09-30T19:55:16.816Z,101980.63
2023-09-30T19:57:44.915Z,101990.06
2023-09-30T20:00:17.677Z,101992.66
2023-09-30T20:02:46.841Z,101997.13
2023-09-30T20:05:15.207Z,101989.97
2023-09-30T20:07:43.200Z,101989.44
2023-09-30T20:10:11.512Z,101998.94
2023-09-30T20:12:39.726Z,102000.69
2023-09-30T20:15:09.910Z,102001.53
2023-09-30T20:17:39.605Z,101993.53
2023-09-30T20:20:16.432Z,101994.31
2023-09-30T20:22:47.500Z,101999.69
2023-09-30T20:25:15.623Z,101995.19
2023-09-30T20:27:44.029Z,101987.19
2023-09-30T20:30:12.648Z,101992.38
2023-09-30T20:32:42.666Z,101995.81
2023-09-30T20:35:11.312Z,101991.31
2023-09-30T20:37:40.216Z,101997.56
2023-09-30T20:40:12.339Z,101991.31
2023-09-30T20:42:40.844Z,101997.47
2023-09-30T20:45:09.842Z,101991.31
2023-09-30T20:47:37.878Z,101996.41
2023-09-30T20:50:09.021Z,101984.63
2023-09-30T20:52:37.135Z,101988.19
2023-09-30T20:55:06.533Z,101983.75
2023-09-30T20:57:34.815Z,101978.38
2023-09-30T21:00:04.804Z,101972.84
2023-09-30T21:02:33.808Z,101978.09
2023-09-30T21:05:01.887Z,101969.09
2023-09-30T21:07:31.409Z,101965.44
2023-09-30T21:09:59.432Z,101970.75
2023-09-30T21:12:28.144Z,101970.75
2023-09-30T21:14:56.104Z,101958.31
2023-09-30T21:17:24.121Z,101969.00
2023-09-30T21:19:52.400Z,101962.75
2023-09-30T21:22:20.705Z,101963.50
2023-09-30T21:24:50.353Z,101962.53
2023-09-30T21:27:19.044Z,101964.28
2023-09-30T21:29:47.025Z,101946.13
2023-09-30T21:32:15.027Z,101969.56
2023-09-30T21:34:42.972Z,101960.81
2023-09-30T21:37:10.992Z,101955.41
2023-09-30T21:39:38.957Z,101967.63
2023-09-30T21:42:08.767Z,101965.78
2023-09-30T21:44:37.175Z,101960.38
2023-09-30T21:47:05.364Z,101969.38
2023-09-30T21:49:33.357Z,101972.91
2023-09-30T21:52:01.524Z,101962.22
2023-09-30T21:54:29.477Z,101971.97
2023-09-30T21:56:57.542Z,101969.16
2023-09-30T21:59:26.951Z,101972.84
2023-09-30T22:01:55.221Z,101967.44
2023-09-30T22:04:23.315Z,101975.41
2023-09-30T22:06:51.618Z,101971.75
2023-09-30T22:09:19.541Z,101978.00
2023-09-30T22:11:47.636Z,101971.84
2023-09-30T22:14:16.539Z,101973.72
2023-09-30T22:16:46.047Z,101969.06
2023-09-30T22:19:14.097Z,101966.25
2023-09-30T22:21:42.120Z,101968.00
2023-09-30T22:24:10.774Z,101963.44
2023-09-30T22:26:38.916Z,101962.59
2023-09-30T22:29:06.825Z,101955.44
2023-09-30T22:31:35.162Z,101965.19
2023-09-30T22:34:05.280Z,101950.97
2023-09-30T22:36:45.668Z,101942.34
2023-09-30T22:39:16.580Z,101955.00
2023-09-30T22:41:45.872Z,101952.31
2023-09-30T22:44:13.825Z,101947.97
2023-09-30T22:46:42.004Z,101956.00
2023-09-30T22:49:11.588Z,101955.25
2023-09-30T22:51:39.498Z,101959.53
2023-09-30T22:54:07.801Z,101965.06
2023-09-30T22:56:35.957Z,101964.94
2023-09-30T22:59:05.287Z,101958.78
2023-09-30T23:01:33.324Z,101953.19
2023-09-30T23:04:02.032Z,101951.44
2023-09-30T23:06:32.198Z,101947.03
2023-09-30T23:09:00.414Z,101950.69
2023-09-30T23:11:28.924Z,101951.66
2023-09-30T23:13:56.955Z,101952.41
2023-09-30T23:16:25.431Z,101954.25
2023-09-30T23:18:54.566Z,101954.38
2023-09-30T23:21:22.579Z,101956.84
2023-09-30T23:23:51.891Z,101956.84
2023-09-30T23:28:49.399Z,101957.72
2023-09-30T23:31:19.412Z,101950.47
2023-09-30T23:33:49.478Z,101943.25
2023-09-30T23:36:18.539Z,101943.25
2023-09-30T23:38:46.669Z,101946.81
2023-09-30T23:41:16.292Z,101945.19
2023-09-30T23:43:44.417Z,101948.41
2023-09-30T23:46:13.193Z,101944.75
2023-09-30T23:48:41.903Z,101939.34
2023-09-30T23:51:10.892Z,101939.34
2023-09-30T23:53:39.414Z,101938.47
2023-09-30T23:56:12.407Z,101943.88
2023-09-30T23:58:41.702Z,101942.16
